CheckWX is a tool to help pilots better visualize weather data.  It is not intended as a substitute for an official pre-flight weather briefing.

04:11:34 UTC

KMSV METAR
Sullivan County International Airport
Monticello, New York, USA
Current

16 mins ago

KMSV 260356Z AUTO 26005KT 3SM VCTS +RA BR OVC020 15/14 A3007 RMK AO2 TSB42RAB10 SLP179 P0019 T01500139
Observed
May-26 @ 03:56 UTC
Wind
  • 260° at 5 KTS
Visibility
3 SM
Flight Rules
MVFR
Conditions
Area Thunderstorm, Heavy Rain, Mist
Cloud Levels
  • Overcast at 2,000' AGL
Temperature
15°C / 59°F
Dewpoint
14°C / 57°F
Humidity
94%
Altimeter
30.07" Hg
Pressure
1018.32 hPa
Current Rain
0.19"
Previous

1 hour ago

KMSV 260256Z AUTO 20005KT 10SM OVC024 17/12 A3006 RMK AO2 SLP176 T01720122 55003
Observed
May-26 @ 02:56 UTC
Wind
  • 200° at 5 KTS
Visibility
10 SM
Flight Rules
MVFR
Cloud Levels
  • Overcast at 2,400' AGL
Temperature
17°C / 63°F
Dewpoint
12°C / 54°F
Humidity
73%
Altimeter
30.06" Hg
Pressure
1017.92 hPa
Previous

2 hours ago

KMSV 260156Z AUTO 17005KT 10SM OVC026 17/12 A3005 RMK AO2 SLP173 T01720122
Observed
May-26 @ 01:56 UTC
Wind
  • 170° at 5 KTS
Visibility
10 SM
Flight Rules
MVFR
Cloud Levels
  • Overcast at 2,600' AGL
Temperature
17°C / 63°F
Dewpoint
12°C / 54°F
Humidity
73%
Altimeter
30.05" Hg
Pressure
1017.62 hPa